createdAt,value
2023-04-30T00:00:12.146Z,11.74
2023-04-30T00:03:23.988Z,11.78
2023-04-30T00:06:07.125Z,11.85
2023-04-30T00:08:56.696Z,11.89
2023-04-30T00:11:44.747Z,11.84
2023-04-30T00:14:33.732Z,11.72
2023-04-30T00:17:24.137Z,11.70
2023-04-30T00:20:15.621Z,11.70
2023-04-30T00:23:04.911Z,11.70
2023-04-30T00:25:54.107Z,11.71
2023-04-30T00:28:43.465Z,11.63
2023-04-30T00:31:32.963Z,11.61
2023-04-30T00:34:24.462Z,11.60
2023-04-30T00:37:13.434Z,11.62
2023-04-30T00:40:03.277Z,11.61
2023-04-30T00:42:55.206Z,11.51
2023-04-30T00:45:44.800Z,11.46
2023-04-30T00:48:34.942Z,11.46
2023-04-30T00:51:26.560Z,11.45
2023-04-30T00:54:16.622Z,11.42
2023-04-30T00:59:57.025Z,11.39
2023-04-30T01:02:47.422Z,11.41
2023-04-30T01:05:36.816Z,11.42
2023-04-30T01:08:26.667Z,11.42
2023-04-30T01:11:29.018Z,11.42
2023-04-30T01:14:27.667Z,11.42
2023-04-30T01:17:23.768Z,11.38
2023-04-30T01:20:15.346Z,11.39
2023-04-30T01:23:34.592Z,11.42
2023-04-30T01:26:46.139Z,11.38
2023-04-30T01:29:36.818Z,11.39
2023-04-30T01:32:26.827Z,11.43
2023-04-30T01:35:16.803Z,11.46
2023-04-30T01:38:16.108Z,11.48
2023-04-30T01:41:09.264Z,11.48
2023-04-30T01:44:12.870Z,11.55
2023-04-30T01:47:07.502Z,11.58
2023-04-30T01:50:10.591Z,11.59
2023-04-30T01:53:02.594Z,11.60
2023-04-30T01:55:59.841Z,11.57
2023-04-30T01:58:54.297Z,11.56
2023-04-30T02:01:44.227Z,11.50
2023-04-30T02:04:34.326Z,11.46
2023-04-30T02:07:38.063Z,11.43
2023-04-30T02:10:29.802Z,11.40
2023-04-30T02:13:19.506Z,11.38
2023-04-30T02:16:09.295Z,11.37
2023-04-30T02:18:58.753Z,11.35
2023-04-30T02:21:47.863Z,11.34
2023-04-30T02:24:37.735Z,11.33
2023-04-30T02:27:30.460Z,11.33
2023-04-30T02:30:20.451Z,11.30
2023-04-30T02:33:11.890Z,11.24
2023-04-30T02:36:01.504Z,11.20
2023-04-30T02:38:51.784Z,11.14
2023-04-30T02:41:43.117Z,11.06
2023-04-30T02:44:32.291Z,11.00
2023-04-30T02:47:21.952Z,10.95
2023-04-30T02:50:11.977Z,10.90
2023-04-30T02:53:01.395Z,10.85
2023-04-30T02:55:52.223Z,10.82
2023-04-30T02:58:41.506Z,10.81
2023-04-30T03:01:30.653Z,10.81
2023-04-30T03:04:20.061Z,10.78
2023-04-30T03:07:09.214Z,10.75
2023-04-30T03:09:58.999Z,10.72
2023-04-30T03:12:47.925Z,10.70
2023-04-30T03:15:37.770Z,10.68
2023-04-30T03:18:28.445Z,10.66
2023-04-30T03:21:18.517Z,10.64
2023-04-30T03:24:08.158Z,10.64
2023-04-30T03:26:57.887Z,10.60
2023-04-30T03:29:48.378Z,10.56
2023-04-30T03:32:38.289Z,10.55
2023-04-30T03:35:27.117Z,10.54
2023-04-30T03:38:16.667Z,10.52
2023-04-30T03:41:06.080Z,10.47
2023-04-30T03:43:55.703Z,10.38
2023-04-30T03:46:47.656Z,10.27
2023-04-30T03:49:37.158Z,10.11
2023-04-30T03:52:27.024Z,9.97
2023-04-30T03:55:08.116Z,9.85
2023-04-30T03:57:57.889Z,9.75
2023-04-30T04:00:47.828Z,9.68
2023-04-30T04:03:37.151Z,9.61
2023-04-30T04:06:27.224Z,9.58
2023-04-30T04:09:16.795Z,9.53
2023-04-30T04:12:06.823Z,9.47
2023-04-30T04:14:56.231Z,9.40
2023-04-30T04:17:45.530Z,9.33
2023-04-30T04:20:36.132Z,9.29
2023-04-30T04:23:25.299Z,9.24
2023-04-30T04:26:15.966Z,9.22
2023-04-30T04:29:05.364Z,9.18
2023-04-30T04:31:55.283Z,9.17
2023-04-30T04:34:45.300Z,9.18
2023-04-30T04:37:36.021Z,9.20
2023-04-30T04:40:24.933Z,9.20
2023-04-30T04:43:14.322Z,9.23
2023-04-30T04:46:04.818Z,9.25
2023-04-30T04:48:54.628Z,9.24
2023-04-30T04:51:43.933Z,9.22
2023-04-30T04:54:34.782Z,9.22
2023-04-30T04:57:25.449Z,9.21
2023-04-30T05:00:16.614Z,9.19
2023-04-30T05:03:05.853Z,9.19
2023-04-30T05:05:58.544Z,9.18
2023-04-30T05:08:48.398Z,9.19
2023-04-30T05:11:41.533Z,9.19
2023-04-30T05:14:30.842Z,9.23
2023-04-30T05:17:20.185Z,9.31
2023-04-30T05:20:12.984Z,9.33
2023-04-30T05:23:03.874Z,9.35
2023-04-30T05:25:54.830Z,9.35
2023-04-30T05:28:45.918Z,9.34
2023-04-30T05:31:37.062Z,9.35
2023-04-30T05:34:28.082Z,9.38
2023-04-30T05:37:20.263Z,9.44
2023-04-30T05:40:11.986Z,9.50
2023-04-30T05:42:52.612Z,9.51
2023-04-30T05:45:42.276Z,9.54
2023-04-30T05:48:31.974Z,9.55
2023-04-30T05:51:23.621Z,9.56
2023-04-30T05:54:12.776Z,9.60
2023-04-30T05:57:03.979Z,9.65
2023-04-30T05:59:54.311Z,9.73
2023-04-30T06:02:40.670Z,9.81
2023-04-30T06:05:30.154Z,9.89
2023-04-30T06:08:20.086Z,9.96
2023-04-30T06:11:09.215Z,10.03
2023-04-30T06:13:59.216Z,10.12
2023-04-30T06:16:48.588Z,10.12
2023-04-30T06:19:38.217Z,10.09
2023-04-30T06:22:28.729Z,10.18
2023-04-30T06:25:18.372Z,10.44
2023-04-30T06:28:09.408Z,10.60
2023-04-30T06:30:59.057Z,10.76
2023-04-30T06:33:48.347Z,10.99
2023-04-30T06:36:37.773Z,11.18
2023-04-30T06:39:27.038Z,11.17
2023-04-30T06:42:16.193Z,11.13
2023-04-30T06:45:07.233Z,11.34
2023-04-30T06:47:57.134Z,11.95
2023-04-30T06:50:46.990Z,12.38
2023-04-30T06:53:36.235Z,12.63
2023-04-30T06:56:27.016Z,12.71
2023-04-30T06:59:17.489Z,12.74
2023-04-30T07:02:10.382Z,12.78
2023-04-30T07:04:59.871Z,12.85
2023-04-30T07:07:49.772Z,12.89
2023-04-30T07:10:40.265Z,13.03
2023-04-30T07:13:29.792Z,13.03
2023-04-30T07:16:18.984Z,12.97
2023-04-30T07:19:08.160Z,12.91
2023-04-30T07:21:57.696Z,13.07
2023-04-30T07:24:47.491Z,13.15
2023-04-30T07:27:37.904Z,13.00
2023-04-30T07:30:20.311Z,12.87
2023-04-30T07:33:10.116Z,12.87
2023-04-30T07:36:00.186Z,12.95
2023-04-30T07:38:42.596Z,12.89
2023-04-30T07:41:34.120Z,12.81
2023-04-30T07:44:24.440Z,12.72
2023-04-30T07:47:18.037Z,12.51
2023-04-30T07:50:08.890Z,12.43
2023-04-30T07:52:58.390Z,12.43
2023-04-30T07:55:47.974Z,12.55
2023-04-30T07:58:37.443Z,12.69
2023-04-30T08:01:27.726Z,12.69
2023-04-30T08:04:16.951Z,12.73
2023-04-30T08:07:07.154Z,12.85
2023-04-30T08:09:57.425Z,12.91
2023-04-30T08:12:39.065Z,13.00
2023-04-30T08:15:30.636Z,13.08
2023-04-30T08:18:20.544Z,13.14
2023-04-30T08:21:10.465Z,13.07
2023-04-30T08:23:54.060Z,12.84
2023-04-30T08:26:43.949Z,12.68
2023-04-30T08:29:33.420Z,12.68
2023-04-30T08:32:26.147Z,12.70
2023-04-30T08:35:16.906Z,12.71
2023-04-30T08:38:05.666Z,12.55
2023-04-30T08:41:05.977Z,12.51
2023-04-30T08:44:00.809Z,12.62
2023-04-30T08:46:44.099Z,12.84
2023-04-30T08:49:33.560Z,12.86
2023-04-30T08:52:25.518Z,12.88
2023-04-30T08:55:16.106Z,13.12
2023-04-30T08:58:05.741Z,13.26
2023-04-30T09:00:55.047Z,13.56
2023-04-30T09:03:44.184Z,13.97
2023-04-30T09:06:33.601Z,14.24
2023-04-30T09:09:27.584Z,14.43
2023-04-30T09:12:19.399Z,14.76
2023-04-30T09:15:11.920Z,15.14
2023-04-30T09:18:12.147Z,15.35
2023-04-30T09:21:02.594Z,15.47
2023-04-30T09:24:02.286Z,15.67
2023-04-30T09:26:54.707Z,15.97
2023-04-30T09:29:45.548Z,16.08
2023-04-30T09:32:34.817Z,16.07
2023-04-30T09:35:30.782Z,16.33
2023-04-30T09:38:31.291Z,16.46
2023-04-30T09:41:26.191Z,16.24
2023-04-30T09:44:31.813Z,16.17
2023-04-30T09:47:21.559Z,16.42
2023-04-30T09:50:14.448Z,16.69
2023-04-30T09:53:08.244Z,16.75
2023-04-30T09:56:02.760Z,16.77
2023-04-30T09:58:53.834Z,17.01
2023-04-30T10:01:44.222Z,17.18
2023-04-30T10:04:35.967Z,17.45
2023-04-30T10:07:31.358Z,17.56
2023-04-30T10:10:22.252Z,17.69
2023-04-30T10:13:14.619Z,17.70
2023-04-30T10:16:12.296Z,17.63
2023-04-30T10:18:58.274Z,17.55
2023-04-30T10:21:47.954Z,17.69
2023-04-30T10:24:37.909Z,17.67
2023-04-30T10:27:29.151Z,17.43
2023-04-30T10:30:18.907Z,17.29
2023-04-30T10:33:19.813Z,17.38
2023-04-30T10:36:14.758Z,17.52
2023-04-30T10:38:58.315Z,17.38
2023-04-30T10:41:48.872Z,17.12
2023-04-30T10:44:39.381Z,17.03
2023-04-30T10:47:30.462Z,17.10
2023-04-30T10:50:24.147Z,17.13
2023-04-30T10:53:17.737Z,17.17
2023-04-30T10:56:08.502Z,17.04
2023-04-30T10:59:01.659Z,17.04
2023-04-30T11:01:58.496Z,17.03
2023-04-30T11:05:11.212Z,17.43
2023-04-30T11:08:00.890Z,17.34
2023-04-30T11:11:01.097Z,17.24
2023-04-30T11:14:01.011Z,17.20
2023-04-30T11:16:53.392Z,17.51
2023-04-30T11:19:50.064Z,17.83
2023-04-30T11:22:39.446Z,17.88
2023-04-30T11:25:48.192Z,17.80
2023-04-30T11:28:38.746Z,17.63
2023-04-30T11:31:37.299Z,17.51
2023-04-30T11:34:27.252Z,17.17
2023-04-30T11:37:21.254Z,17.12
2023-04-30T11:40:12.134Z,17.14
2023-04-30T11:43:01.097Z,17.16
2023-04-30T11:46:01.479Z,17.25
2023-04-30T11:48:50.789Z,17.56
2023-04-30T11:51:42.120Z,17.80
2023-04-30T11:54:34.658Z,17.66
2023-04-30T11:57:25.377Z,17.59
2023-04-30T12:00:16.936Z,17.29
2023-04-30T12:03:07.179Z,17.11
2023-04-30T12:05:57.070Z,16.94
2023-04-30T12:08:46.235Z,17.00
2023-04-30T12:11:29.960Z,16.93
2023-04-30T12:14:19.079Z,16.80
2023-04-30T12:17:08.329Z,16.82
2023-04-30T12:19:57.977Z,17.08
2023-04-30T12:22:47.799Z,17.33
2023-04-30T12:25:42.490Z,17.55
2023-04-30T12:28:31.463Z,17.48
2023-04-30T12:31:21.225Z,17.39
2023-04-30T12:34:12.343Z,17.15
2023-04-30T12:37:02.813Z,16.96
2023-04-30T12:39:55.503Z,16.75
2023-04-30T12:42:46.463Z,16.57
2023-04-30T12:45:51.010Z,16.61
2023-04-30T12:48:45.445Z,16.62
2023-04-30T12:51:36.121Z,16.37
2023-04-30T12:54:29.246Z,16.32
2023-04-30T12:57:18.036Z,16.33
2023-04-30T13:00:09.937Z,16.35
2023-04-30T13:02:59.182Z,16.33
2023-04-30T13:05:49.586Z,16.29
2023-04-30T13:08:49.692Z,16.28
2023-04-30T13:11:37.143Z,16.16
2023-04-30T13:14:17.237Z,16.08
2023-04-30T13:17:09.125Z,16.06
2023-04-30T13:19:58.016Z,16.11
2023-04-30T13:22:46.888Z,16.14
2023-04-30T13:25:36.231Z,16.02
2023-04-30T13:28:25.752Z,15.87
2023-04-30T13:31:14.755Z,15.85
2023-04-30T13:34:04.445Z,15.83
2023-04-30T13:36:53.710Z,15.72
2023-04-30T13:39:45.292Z,15.68
2023-04-30T13:42:38.758Z,15.51
2023-04-30T13:45:27.774Z,15.39
2023-04-30T13:48:17.026Z,15.28
2023-04-30T13:51:08.664Z,15.23
2023-04-30T13:53:47.492Z,15.28
2023-04-30T13:56:37.897Z,15.29
2023-04-30T13:59:28.263Z,15.27
2023-04-30T14:02:18.458Z,15.17
2023-04-30T14:05:09.474Z,15.09
2023-04-30T14:07:53.926Z,15.03
2023-04-30T14:10:42.917Z,14.97
2023-04-30T14:13:31.820Z,14.94
2023-04-30T14:16:21.847Z,14.82
2023-04-30T14:19:11.376Z,14.72
2023-04-30T14:22:01.736Z,14.58
2023-04-30T14:24:53.219Z,14.52
2023-04-30T14:27:32.696Z,14.55
2023-04-30T14:30:22.211Z,14.57
2023-04-30T14:33:12.257Z,14.55
2023-04-30T14:36:01.597Z,14.52
2023-04-30T14:38:50.800Z,14.39
2023-04-30T14:41:38.624Z,14.31
2023-04-30T14:44:27.614Z,14.24
2023-04-30T14:47:17.380Z,14.21
2023-04-30T14:50:07.398Z,14.28
2023-04-30T14:52:56.646Z,14.30
2023-04-30T14:55:45.513Z,14.24
2023-04-30T14:58:34.431Z,14.15
2023-04-30T15:01:22.386Z,14.07
2023-04-30T15:04:11.440Z,14.04
2023-04-30T15:07:02.135Z,14.07
2023-04-30T15:09:53.088Z,13.98
2023-04-30T15:12:43.065Z,13.94
2023-04-30T15:15:32.260Z,13.86
2023-04-30T15:18:21.310Z,13.81
2023-04-30T15:21:04.382Z,13.80
2023-04-30T15:23:54.701Z,13.84
2023-04-30T15:26:45.687Z,13.79
2023-04-30T15:29:34.523Z,13.76
2023-04-30T15:32:25.071Z,13.72
2023-04-30T15:35:14.724Z,13.67
2023-04-30T15:38:03.924Z,13.58
2023-04-30T15:40:55.536Z,13.52
2023-04-30T15:43:44.532Z,13.52
2023-04-30T15:46:35.858Z,13.57
2023-04-30T15:49:27.353Z,13.50
2023-04-30T15:52:17.143Z,13.46
2023-04-30T15:55:09.056Z,13.44
2023-04-30T15:57:57.887Z,13.45
2023-04-30T16:00:47.072Z,13.42
2023-04-30T16:03:37.364Z,13.35
2023-04-30T16:06:29.415Z,13.27
2023-04-30T16:09:11.897Z,13.18
2023-04-30T16:12:00.810Z,13.07
2023-04-30T16:14:51.112Z,13.05
2023-04-30T16:17:42.594Z,13.02
2023-04-30T16:20:31.961Z,12.99
2023-04-30T16:23:21.923Z,12.93
2023-04-30T16:26:10.954Z,12.88
2023-04-30T16:29:00.253Z,12.83
2023-04-30T16:31:49.146Z,12.77
2023-04-30T16:34:39.417Z,12.71
2023-04-30T16:37:29.021Z,12.65
2023-04-30T16:40:19.218Z,12.60
2023-04-30T16:43:12.302Z,12.55
2023-04-30T16:46:00.532Z,12.50
2023-04-30T16:48:49.509Z,12.45
2023-04-30T16:51:41.407Z,12.40
2023-04-30T16:54:30.324Z,12.35
2023-04-30T16:57:18.019Z,12.29
2023-04-30T17:00:10.879Z,12.25
2023-04-30T17:03:00.354Z,12.20
2023-04-30T17:05:48.761Z,12.15
2023-04-30T17:08:40.010Z,12.09
2023-04-30T17:11:29.540Z,12.01
2023-04-30T17:14:18.549Z,11.94
2023-04-30T17:17:07.769Z,11.87
2023-04-30T17:19:57.108Z,11.82
2023-04-30T17:22:46.912Z,11.75
2023-04-30T17:25:37.576Z,11.69
2023-04-30T17:28:27.117Z,11.61
2023-04-30T17:31:15.892Z,11.53
2023-04-30T17:34:04.033Z,11.44
2023-04-30T17:36:52.593Z,11.36
2023-04-30T17:39:40.042Z,11.29
2023-04-30T17:42:31.409Z,11.21
2023-04-30T17:45:20.775Z,11.12
2023-04-30T17:48:10.182Z,11.02
2023-04-30T17:51:00.340Z,10.95
2023-04-30T17:53:49.736Z,10.86
2023-04-30T17:56:38.600Z,10.78
2023-04-30T17:59:27.841Z,10.71
2023-04-30T18:02:19.264Z,10.62
2023-04-30T18:05:09.886Z,10.55
2023-04-30T18:07:59.643Z,10.46
2023-04-30T18:10:49.792Z,10.34
2023-04-30T18:13:39.750Z,10.22
2023-04-30T18:16:29.427Z,10.09
2023-04-30T18:19:18.464Z,9.99
2023-04-30T18:22:07.638Z,9.88
2023-04-30T18:24:47.738Z,9.75
2023-04-30T18:27:37.573Z,9.62
2023-04-30T18:30:31.139Z,9.52
2023-04-30T18:33:20.857Z,9.38
2023-04-30T18:36:11.758Z,9.22
2023-04-30T18:39:00.829Z,9.06
2023-04-30T18:41:54.275Z,8.92
2023-04-30T18:44:47.522Z,8.79
2023-04-30T18:47:37.182Z,8.64
2023-04-30T18:50:27.818Z,8.50
2023-04-30T18:53:17.594Z,8.33
2023-04-30T18:56:07.549Z,8.26
2023-04-30T18:58:57.555Z,8.20
2023-04-30T19:01:46.828Z,8.10
2023-04-30T19:04:37.523Z,8.08
2023-04-30T19:07:28.264Z,8.07
2023-04-30T19:10:18.315Z,8.05
2023-04-30T19:13:08.131Z,8.00
2023-04-30T19:16:00.049Z,7.92
2023-04-30T19:18:49.288Z,7.85
2023-04-30T19:21:37.095Z,7.73
2023-04-30T19:24:29.227Z,7.64
2023-04-30T19:27:18.431Z,7.54
2023-04-30T19:30:10.559Z,7.44
2023-04-30T19:32:59.379Z,7.34
2023-04-30T19:35:49.548Z,7.23
2023-04-30T19:38:38.601Z,7.12
2023-04-30T19:41:27.245Z,7.03
2023-04-30T19:44:19.378Z,6.93
2023-04-30T19:47:08.516Z,6.83
2023-04-30T19:49:58.886Z,6.74
2023-04-30T19:52:48.081Z,6.66
2023-04-30T19:55:37.194Z,6.58
2023-04-30T19:58:25.453Z,6.52
2023-04-30T20:01:14.533Z,6.44
2023-04-30T20:04:07.501Z,6.36
2023-04-30T20:06:57.835Z,6.29
2023-04-30T20:09:47.509Z,6.22
2023-04-30T20:12:38.147Z,6.16
2023-04-30T20:15:27.569Z,6.12
2023-04-30T20:18:16.676Z,6.11
2023-04-30T20:21:06.528Z,6.09
2023-04-30T20:23:55.423Z,6.03
2023-04-30T20:26:45.051Z,5.96
2023-04-30T20:29:35.548Z,5.88
2023-04-30T20:32:27.269Z,5.79
2023-04-30T20:35:16.188Z,5.70
2023-04-30T20:38:07.878Z,5.62
2023-04-30T20:40:53.451Z,5.61
2023-04-30T20:43:42.422Z,5.56
2023-04-30T20:46:31.986Z,5.50
2023-04-30T20:49:21.198Z,5.43
2023-04-30T20:52:11.634Z,5.38
2023-04-30T20:55:01.047Z,5.33
2023-04-30T20:57:49.999Z,5.28
2023-04-30T21:00:40.802Z,5.22
2023-04-30T21:03:32.308Z,5.17
2023-04-30T21:06:20.008Z,5.08
2023-04-30T21:09:08.131Z,5.02
2023-04-30T21:11:58.038Z,4.97
2023-04-30T21:14:47.144Z,4.89
2023-04-30T21:17:36.353Z,4.84
2023-04-30T21:20:26.658Z,4.79
2023-04-30T21:23:15.695Z,4.72
2023-04-30T21:26:04.978Z,4.67
2023-04-30T21:28:52.948Z,4.64
2023-04-30T21:31:50.675Z,4.59
2023-04-30T21:34:39.650Z,4.53
2023-04-30T21:37:28.014Z,4.51
2023-04-30T21:40:16.958Z,4.49
2023-04-30T21:43:06.696Z,4.49
2023-04-30T21:46:02.345Z,4.48
2023-04-30T21:48:52.714Z,4.44
2023-04-30T21:51:41.914Z,4.34
2023-04-30T21:54:31.146Z,4.21
2023-04-30T21:57:21.629Z,4.15
2023-04-30T22:00:13.891Z,4.14
2023-04-30T22:03:03.483Z,4.13
2023-04-30T22:05:55.316Z,4.11
2023-04-30T22:08:44.061Z,4.07
2023-04-30T22:11:32.305Z,4.03
2023-04-30T22:14:25.178Z,4.00
2023-04-30T22:17:14.025Z,4.00
2023-04-30T22:20:09.309Z,3.99
2023-04-30T22:22:58.397Z,3.96
2023-04-30T22:25:47.786Z,3.90
2023-04-30T22:28:37.454Z,3.88
2023-04-30T22:31:28.692Z,3.87
2023-04-30T22:34:19.071Z,3.85
2023-04-30T22:37:09.984Z,3.84
2023-04-30T22:40:02.929Z,3.88
2023-04-30T22:42:54.014Z,3.87
2023-04-30T22:45:43.674Z,3.86
2023-04-30T22:48:32.994Z,3.85
2023-04-30T22:51:23.026Z,3.80
2023-04-30T22:54:12.667Z,3.74
2023-04-30T22:57:02.504Z,3.68
2023-04-30T23:00:02.399Z,3.66
2023-04-30T23:02:51.811Z,3.69
2023-04-30T23:05:41.173Z,3.70
2023-04-30T23:08:30.644Z,3.72
2023-04-30T23:11:20.965Z,3.75
2023-04-30T23:14:10.978Z,3.82
2023-04-30T23:17:00.922Z,3.86
2023-04-30T23:19:50.692Z,3.89
2023-04-30T23:22:39.782Z,3.93
2023-04-30T23:25:28.831Z,4.00
2023-04-30T23:28:16.982Z,4.06
2023-04-30T23:31:06.127Z,4.10
2023-04-30T23:33:55.304Z,4.16
2023-04-30T23:36:45.457Z,4.19
2023-04-30T23:39:33.406Z,4.21
2023-04-30T23:42:22.679Z,4.19
2023-04-30T23:45:12.177Z,4.16
2023-04-30T23:48:01.241Z,4.14
2023-04-30T23:51:00.013Z,4.13
2023-04-30T23:53:49.452Z,4.09
2023-04-30T23:56:41.697Z,4.08
2023-04-30T23:59:30.559Z,4.08
